Decatur, Alabama
Current Conditions -  °F | °C
As of 10:53 PM on Friday 19 Dec 2014 (Local Time) from KDCU Reporting Station
Light Rain Light Rain  
Wind Chill: 31°   Ceiling: 7000
Heat Index: 38°   Visibility: 9mi
Dew Point: 31°   Wind: 9mph
Humidity: 76%   Direction: 360°N
Pressure: 30.2"   Gusts: NA
Location:  34.61°N, 86.98°W
Report Text: KDCU 200453Z AUTO 36008KT 9SM -RA OVC070 03/M01 A3020 RMK AO2 RAB39 SLP229 P0000 T00331006
Loading
Personal Weather Stations






























Interactive Weather Map New forecast layout! Learn more

10-Day Weather Forecast

Advertisements
Track Severe Weather on mobile